createdAt,value
2024-05-09T00:00:35.501Z,56.00
2024-05-09T00:03:07.748Z,55.99
2024-05-09T00:05:34.741Z,57.26
2024-05-09T00:08:01.528Z,56.29
2024-05-09T00:10:35.382Z,56.31
2024-05-09T00:13:04.798Z,56.58
2024-05-09T00:15:31.530Z,56.61
2024-05-09T00:17:58.257Z,55.98
2024-05-09T00:20:33.060Z,56.40
2024-05-09T00:23:06.664Z,56.98
2024-05-09T00:25:33.369Z,58.88
2024-05-09T00:27:59.877Z,58.50
2024-05-09T00:30:33.442Z,60.81
2024-05-09T00:33:02.774Z,59.55
2024-05-09T00:35:29.654Z,58.03
2024-05-09T00:37:56.308Z,57.09
2024-05-09T00:40:31.005Z,56.08
2024-05-09T00:43:05.640Z,55.67
2024-05-09T00:45:32.259Z,56.88
2024-05-09T00:48:02.561Z,56.81
2024-05-09T00:50:35.797Z,56.03
2024-05-09T00:53:05.781Z,55.92
2024-05-09T00:55:32.470Z,56.54
2024-05-09T00:57:59.091Z,56.38
2024-05-09T01:00:31.820Z,56.50
2024-05-09T01:03:05.647Z,56.06
2024-05-09T01:05:32.650Z,56.56
2024-05-09T01:07:59.304Z,56.69
2024-05-09T01:10:33.528Z,55.94
2024-05-09T01:13:02.601Z,58.05
2024-05-09T01:15:29.122Z,57.98
2024-05-09T01:17:56.275Z,57.36
2024-05-09T01:20:32.085Z,57.09
2024-05-09T01:23:07.502Z,56.05
2024-05-09T01:25:34.180Z,55.72
2024-05-09T01:28:00.774Z,55.42
2024-05-09T01:30:33.993Z,55.73
2024-05-09T01:33:03.596Z,56.53
2024-05-09T01:35:30.481Z,56.31
2024-05-09T01:37:57.102Z,56.73
2024-05-09T01:40:33.317Z,56.94
2024-05-09T01:43:04.510Z,57.36
2024-05-09T01:45:31.084Z,57.23
2024-05-09T01:47:57.761Z,57.29
2024-05-09T01:50:35.837Z,57.00
2024-05-09T01:53:05.720Z,56.54
2024-05-09T01:55:32.515Z,56.19
2024-05-09T01:57:59.016Z,56.42
2024-05-09T02:00:36.818Z,57.13
2024-05-09T02:03:15.169Z,57.94
2024-05-09T02:05:45.230Z,58.13
2024-05-09T02:08:16.994Z,59.33
2024-05-09T02:10:44.778Z,59.10
2024-05-09T02:13:11.882Z,57.54
2024-05-09T02:15:38.437Z,58.41
2024-05-09T02:18:05.642Z,58.37
2024-05-09T02:20:36.266Z,59.47
2024-05-09T02:23:05.136Z,61.65
2024-05-09T02:25:32.431Z,60.75
2024-05-09T02:27:59.343Z,61.31
2024-05-09T02:30:35.808Z,60.51
2024-05-09T02:33:07.148Z,59.66
2024-05-09T02:35:34.127Z,60.97
2024-05-09T02:38:00.869Z,60.82
2024-05-09T02:40:35.698Z,61.08
2024-05-09T02:43:05.020Z,62.97
2024-05-09T02:45:31.618Z,62.59
2024-05-09T02:47:58.521Z,61.74
2024-05-09T02:50:33.653Z,59.78
2024-05-09T02:53:05.038Z,57.98
2024-05-09T02:55:31.696Z,57.62
2024-05-09T02:57:58.188Z,57.49
2024-05-09T03:00:34.191Z,56.68
2024-05-09T03:03:06.459Z,56.42
2024-05-09T03:05:33.447Z,57.10
2024-05-09T03:08:00.144Z,57.06
2024-05-09T03:10:29.102Z,57.02
2024-05-09T03:13:05.703Z,57.47
2024-05-09T03:15:33.033Z,57.82
2024-05-09T03:18:00.883Z,56.53
2024-05-09T03:20:33.216Z,56.55
2024-05-09T03:23:02.213Z,55.91
2024-05-09T03:25:28.826Z,56.33
2024-05-09T03:27:55.501Z,56.34
2024-05-09T03:30:31.086Z,57.59
2024-05-09T03:33:13.882Z,57.32
2024-05-09T03:35:41.683Z,57.34
2024-05-09T03:38:08.499Z,56.94
2024-05-09T03:40:35.345Z,57.51
2024-05-09T03:43:01.886Z,57.04
2024-05-09T03:45:28.354Z,56.99
2024-05-09T03:47:55.120Z,57.43
2024-05-09T03:50:29.905Z,57.02
2024-05-09T03:53:01.274Z,57.17
2024-05-09T03:55:28.566Z,58.06
2024-05-09T03:57:55.120Z,57.81
2024-05-09T04:00:30.792Z,58.69
2024-05-09T04:03:04.122Z,58.43
2024-05-09T04:05:31.204Z,58.63
2024-05-09T04:07:58.405Z,59.37
2024-05-09T04:10:32.380Z,59.46
2024-05-09T04:13:00.558Z,59.13
2024-05-09T04:15:27.076Z,58.61
2024-05-09T04:17:53.778Z,57.50
2024-05-09T04:20:29.373Z,57.78
2024-05-09T04:23:04.278Z,57.66
2024-05-09T04:25:32.148Z,57.66
2024-05-09T04:27:58.644Z,57.86
2024-05-09T04:30:34.563Z,57.99
2024-05-09T04:33:05.878Z,58.00
2024-05-09T04:35:32.721Z,58.12
2024-05-09T04:37:59.298Z,58.07
2024-05-09T04:40:33.015Z,58.11
2024-05-09T04:43:02.229Z,58.28
2024-05-09T04:45:28.691Z,58.84
2024-05-09T04:47:55.486Z,58.94
2024-05-09T04:50:30.125Z,58.91
2024-05-09T04:53:03.465Z,58.40
2024-05-09T04:55:30.069Z,57.89
2024-05-09T04:57:56.566Z,57.98
2024-05-09T05:00:32.323Z,57.83
2024-05-09T05:03:06.813Z,58.75
2024-05-09T05:05:34.433Z,59.01
2024-05-09T05:08:01.179Z,57.77
2024-05-09T05:10:33.834Z,58.36
2024-05-09T05:13:23.051Z,57.98
2024-05-09T05:15:56.939Z,58.07
2024-05-09T05:18:26.189Z,58.02
2024-05-09T05:20:53.077Z,57.86
2024-05-09T05:23:21.087Z,58.19
2024-05-09T05:25:49.266Z,57.99
2024-05-09T05:28:16.664Z,58.67
2024-05-09T05:30:43.324Z,59.26
2024-05-09T05:33:11.622Z,58.19
2024-05-09T05:35:39.016Z,57.41
2024-05-09T05:38:09.539Z,58.68
2024-05-09T05:40:38.453Z,58.17
2024-05-09T05:43:10.359Z,58.38
2024-05-09T05:45:37.425Z,57.74
2024-05-09T05:48:05.692Z,57.36
2024-05-09T05:50:36.376Z,57.03
2024-05-09T05:53:08.946Z,56.99
2024-05-09T05:55:40.590Z,57.30
2024-05-09T05:58:11.078Z,56.01
2024-05-09T06:00:39.885Z,55.53
2024-05-09T06:03:08.847Z,56.62
2024-05-09T06:05:36.859Z,56.54
2024-05-09T06:08:03.708Z,56.74
2024-05-09T06:10:37.623Z,56.12
2024-05-09T06:13:07.431Z,55.91
2024-05-09T06:15:34.127Z,55.74
2024-05-09T06:18:00.911Z,56.48
2024-05-09T06:20:35.227Z,55.62
2024-05-09T06:23:05.248Z,56.04
2024-05-09T06:25:32.043Z,55.29
2024-05-09T06:28:00.049Z,54.76
2024-05-09T06:30:35.283Z,54.64
2024-05-09T06:33:06.698Z,54.81
2024-05-09T06:35:33.830Z,54.80
2024-05-09T06:38:00.647Z,54.79
2024-05-09T06:40:36.162Z,55.77
2024-05-09T06:43:05.335Z,56.06
2024-05-09T06:45:31.835Z,54.89
2024-05-09T06:47:58.525Z,54.53
2024-05-09T06:50:28.359Z,54.34
2024-05-09T06:52:58.315Z,54.68
2024-05-09T06:55:24.928Z,55.50
2024-05-09T06:57:51.478Z,55.25
2024-05-09T07:00:26.863Z,54.92
2024-05-09T07:02:58.999Z,53.96
2024-05-09T07:05:26.840Z,53.22
2024-05-09T07:07:53.540Z,54.32
2024-05-09T07:10:28.456Z,54.07
2024-05-09T07:12:59.268Z,53.77
2024-05-09T07:15:25.794Z,53.33
2024-05-09T07:17:52.618Z,53.09
2024-05-09T07:20:27.598Z,52.63
2024-05-09T07:23:00.615Z,52.49
2024-05-09T07:25:27.138Z,52.76
2024-05-09T07:27:53.617Z,52.33
2024-05-09T07:30:27.620Z,52.01
2024-05-09T07:32:59.773Z,52.96
2024-05-09T07:35:26.783Z,52.28
2024-05-09T07:37:53.561Z,53.47
2024-05-09T07:40:28.396Z,52.97
2024-05-09T07:43:03.250Z,55.14
2024-05-09T07:45:45.844Z,54.38
2024-05-09T07:53:38.366Z,53.19
2024-05-09T07:56:06.313Z,55.96
2024-05-09T07:58:33.019Z,54.46
2024-05-09T08:00:59.813Z,56.47
2024-05-09T08:03:26.519Z,55.69
2024-05-09T08:05:54.321Z,53.77
2024-05-09T08:08:20.932Z,53.65
2024-05-09T08:10:47.498Z,52.38
2024-05-09T08:13:14.208Z,54.31
2024-05-09T08:15:40.894Z,55.33
2024-05-09T08:18:08.979Z,54.68
2024-05-09T08:20:39.334Z,55.98
2024-05-09T08:23:06.135Z,56.40
2024-05-09T08:25:32.996Z,54.02
2024-05-09T08:27:59.699Z,53.57
2024-05-09T08:30:33.394Z,54.48
2024-05-09T08:33:03.930Z,53.64
2024-05-09T08:35:30.583Z,53.91
2024-05-09T08:37:57.307Z,55.06
2024-05-09T08:40:30.911Z,55.32
2024-05-09T08:43:03.075Z,55.43
2024-05-09T08:45:33.225Z,57.56
2024-05-09T08:48:01.280Z,55.27
2024-05-09T08:50:35.885Z,55.07
2024-05-09T08:53:05.482Z,53.17
2024-05-09T08:55:32.553Z,51.50
2024-05-09T08:58:03.444Z,53.01
2024-05-09T09:00:36.782Z,52.53
2024-05-09T09:03:08.976Z,52.24
2024-05-09T09:05:38.713Z,53.55
2024-05-09T09:08:07.625Z,52.04
2024-05-09T09:10:35.198Z,51.36
2024-05-09T09:13:04.261Z,51.94
2024-05-09T09:15:31.120Z,51.50
2024-05-09T09:18:01.724Z,50.33
2024-05-09T09:20:35.790Z,50.61
2024-05-09T09:23:04.513Z,51.27
2024-05-09T09:25:31.453Z,50.54
2024-05-09T09:27:58.535Z,50.62
2024-05-09T09:30:35.136Z,50.87
2024-05-09T09:33:04.890Z,48.95
2024-05-09T09:35:31.668Z,46.74
2024-05-09T09:38:05.675Z,49.52
2024-05-09T09:40:40.998Z,48.09
2024-05-09T09:43:18.562Z,48.73
2024-05-09T09:45:49.558Z,48.38
2024-05-09T09:48:16.847Z,46.83
2024-05-09T09:50:43.983Z,46.73
2024-05-09T09:53:12.589Z,46.38
2024-05-09T09:55:40.197Z,47.02
2024-05-09T09:58:09.548Z,46.36
2024-05-09T10:00:38.481Z,44.41
2024-05-09T10:03:05.319Z,42.97
2024-05-09T10:05:33.514Z,40.08
2024-05-09T10:08:05.703Z,43.66
2024-05-09T10:10:34.459Z,42.52
2024-05-09T10:13:05.182Z,41.10
2024-05-09T10:15:45.820Z,38.63
2024-05-09T10:18:12.909Z,38.73
2024-05-09T10:20:44.323Z,41.49
2024-05-09T10:23:23.587Z,40.49
2024-05-09T10:26:06.293Z,41.04
2024-05-09T10:28:35.021Z,40.48
2024-05-09T10:31:08.560Z,34.17
2024-05-09T10:33:52.616Z,32.72
2024-05-09T10:36:23.568Z,31.49
2024-05-09T10:38:51.497Z,32.35
2024-05-09T10:41:19.745Z,30.51
2024-05-09T10:43:47.381Z,29.81
2024-05-09T10:46:18.791Z,30.38
2024-05-09T10:48:45.649Z,29.97
2024-05-09T10:51:13.558Z,31.17
2024-05-09T10:53:48.989Z,31.17
2024-05-09T10:56:16.528Z,34.21
2024-05-09T10:58:43.224Z,33.23
2024-05-09T11:01:10.394Z,31.02
2024-05-09T11:03:38.150Z,31.97
2024-05-09T11:06:06.241Z,32.00
2024-05-09T11:08:33.952Z,31.30
2024-05-09T11:11:02.764Z,31.10
2024-05-09T11:13:34.467Z,29.64
2024-05-09T11:16:02.245Z,30.91
2024-05-09T11:18:34.680Z,30.90
2024-05-09T11:21:03.566Z,30.90
2024-05-09T11:23:30.697Z,31.36
2024-05-09T11:25:58.820Z,31.68
2024-05-09T11:28:28.404Z,31.20
2024-05-09T11:31:09.469Z,31.72
2024-05-09T11:33:41.076Z,29.63
2024-05-09T11:36:08.645Z,29.74
2024-05-09T11:38:35.353Z,29.98
2024-05-09T11:41:03.214Z,30.01
2024-05-09T11:43:29.918Z,29.58
2024-05-09T11:45:57.584Z,31.99
2024-05-09T11:48:25.478Z,31.20
2024-05-09T11:50:52.288Z,30.65
2024-05-09T11:53:18.779Z,31.29
2024-05-09T11:55:45.310Z,30.64
2024-05-09T11:58:13.725Z,30.18
2024-05-09T12:00:40.351Z,29.39
2024-05-09T12:03:06.942Z,30.30
2024-05-09T12:05:34.519Z,29.93
2024-05-09T12:08:01.838Z,30.27
2024-05-09T12:12:58.223Z,29.51
2024-05-09T12:15:24.762Z,29.42
2024-05-09T12:17:51.376Z,30.24
2024-05-09T12:20:25.799Z,29.72
2024-05-09T12:22:59.563Z,29.86
2024-05-09T12:25:26.124Z,29.22
2024-05-09T12:27:53.017Z,28.95
2024-05-09T12:30:32.175Z,30.35
2024-05-09T12:33:04.083Z,28.41
2024-05-09T12:35:30.783Z,29.48
2024-05-09T12:37:57.318Z,29.73
2024-05-09T12:40:34.018Z,29.60
2024-05-09T12:43:03.905Z,28.84
2024-05-09T12:45:30.612Z,28.36
2024-05-09T12:47:57.382Z,29.11
2024-05-09T12:50:31.050Z,28.29
2024-05-09T12:52:59.537Z,29.15
2024-05-09T12:55:27.036Z,30.02
2024-05-09T12:57:54.672Z,29.39
2024-05-09T13:00:28.119Z,28.35
2024-05-09T13:03:00.288Z,28.86
2024-05-09T13:05:27.182Z,29.14
2024-05-09T13:07:53.931Z,30.08
2024-05-09T13:10:28.963Z,29.68
2024-05-09T13:12:59.278Z,28.64
2024-05-09T13:15:25.921Z,28.37
2024-05-09T13:17:52.557Z,29.22
2024-05-09T13:20:26.408Z,28.11
2024-05-09T13:23:01.378Z,28.57
2024-05-09T13:25:27.882Z,27.28
2024-05-09T13:27:54.856Z,26.55
2024-05-09T13:30:29.282Z,26.46
2024-05-09T13:33:04.857Z,27.55
2024-05-09T13:35:32.097Z,28.50
2024-05-09T13:38:00.676Z,28.94
2024-05-09T13:40:33.091Z,29.08
2024-05-09T13:43:02.650Z,28.20
2024-05-09T13:45:29.383Z,27.42
2024-05-09T13:47:56.515Z,26.93
2024-05-09T13:50:31.290Z,26.29
2024-05-09T13:53:02.034Z,25.31
2024-05-09T13:55:28.687Z,27.21
2024-05-09T13:57:55.648Z,27.66
2024-05-09T14:00:37.668Z,27.39
2024-05-09T14:03:09.026Z,27.82
2024-05-09T14:05:35.775Z,28.24
2024-05-09T14:08:02.990Z,27.50
2024-05-09T14:10:31.679Z,27.02
2024-05-09T14:12:59.072Z,26.03
2024-05-09T14:15:25.669Z,26.68
2024-05-09T14:17:52.386Z,28.42
2024-05-09T14:20:28.519Z,28.39
2024-05-09T14:22:58.421Z,27.33
2024-05-09T14:25:26.331Z,27.60
2024-05-09T14:27:53.278Z,26.81
2024-05-09T14:30:29.581Z,26.80
2024-05-09T14:33:01.298Z,27.43
2024-05-09T14:35:28.358Z,26.13
2024-05-09T14:37:55.000Z,26.69
2024-05-09T14:40:35.728Z,25.61
2024-05-09T14:43:07.759Z,25.38
2024-05-09T14:45:34.637Z,26.21
2024-05-09T14:48:01.650Z,27.64
2024-05-09T14:50:35.146Z,25.95
2024-05-09T14:53:06.220Z,26.20
2024-05-09T14:55:35.750Z,25.78
2024-05-09T14:58:03.231Z,26.28
2024-05-09T15:00:35.572Z,26.53
2024-05-09T15:03:03.698Z,25.59
2024-05-09T15:05:30.518Z,26.57
2024-05-09T15:07:57.533Z,27.15
2024-05-09T15:10:33.160Z,27.06
2024-05-09T15:13:02.170Z,27.16
2024-05-09T15:15:28.708Z,28.20
2024-05-09T15:17:55.761Z,27.40
2024-05-09T15:20:31.013Z,27.52
2024-05-09T15:23:01.807Z,26.69
2024-05-09T15:25:28.448Z,26.37
2024-05-09T15:27:55.187Z,26.05
2024-05-09T15:30:29.932Z,26.46
2024-05-09T15:32:59.015Z,26.25
2024-05-09T15:35:25.533Z,24.36
2024-05-09T15:37:52.104Z,24.09
2024-05-09T15:40:26.583Z,24.68
2024-05-09T15:43:02.350Z,26.50
2024-05-09T15:45:29.293Z,26.47
2024-05-09T15:47:57.129Z,25.59
2024-05-09T15:50:35.126Z,26.88
2024-05-09T15:53:06.031Z,27.34
2024-05-09T15:55:34.203Z,26.48
2024-05-09T15:58:02.011Z,26.67
2024-05-09T16:00:36.639Z,26.18
2024-05-09T16:03:06.922Z,26.89
2024-05-09T16:05:33.815Z,27.44
2024-05-09T16:08:00.625Z,27.38
2024-05-09T16:10:32.419Z,28.45
2024-05-09T16:13:00.643Z,27.52
2024-05-09T16:15:27.257Z,26.84
2024-05-09T16:17:56.620Z,27.00
2024-05-09T16:22:52.830Z,27.89
2024-05-09T16:25:19.411Z,28.00
2024-05-09T16:27:46.147Z,27.77
2024-05-09T16:30:20.959Z,28.18
2024-05-09T16:32:53.955Z,28.37
2024-05-09T16:35:20.482Z,28.69
2024-05-09T16:37:47.752Z,28.80
2024-05-09T16:40:22.147Z,29.30
2024-05-09T16:42:56.634Z,28.80
2024-05-09T16:45:23.313Z,28.56
2024-05-09T16:47:50.353Z,28.04
2024-05-09T16:50:25.651Z,27.13
2024-05-09T16:52:55.337Z,27.58
2024-05-09T16:55:21.946Z,27.79
2024-05-09T16:57:48.638Z,28.50
2024-05-09T17:00:22.677Z,27.91
2024-05-09T17:02:57.960Z,28.53
2024-05-09T17:05:24.744Z,28.47
2024-05-09T17:07:51.632Z,29.69
2024-05-09T17:10:26.563Z,30.57
2024-05-09T17:12:58.663Z,30.61
2024-05-09T17:15:25.704Z,31.13
2024-05-09T17:17:52.383Z,31.82
2024-05-09T17:20:29.281Z,32.63
2024-05-09T17:23:00.231Z,31.91
2024-05-09T17:25:26.817Z,32.56
2024-05-09T17:27:53.779Z,32.34
2024-05-09T17:30:28.759Z,31.62
2024-05-09T17:33:01.132Z,32.27
2024-05-09T17:35:27.761Z,32.17
2024-05-09T17:37:54.408Z,32.87
2024-05-09T17:40:27.839Z,32.56
2024-05-09T17:42:59.714Z,32.73
2024-05-09T17:45:26.302Z,32.73
2024-05-09T17:47:53.107Z,32.21
2024-05-09T17:50:27.345Z,33.06
2024-05-09T17:53:00.321Z,33.25
2024-05-09T17:55:26.932Z,33.47
2024-05-09T17:57:53.591Z,33.63
2024-05-09T18:00:29.039Z,34.20
2024-05-09T18:03:04.001Z,34.05
2024-05-09T18:05:30.956Z,34.42
2024-05-09T18:07:57.892Z,34.14
2024-05-09T18:10:32.554Z,34.09
2024-05-09T18:13:03.278Z,33.89
2024-05-09T18:15:29.848Z,34.26
2024-05-09T18:17:56.618Z,34.28
2024-05-09T18:20:32.790Z,34.56
2024-05-09T18:23:07.531Z,34.98
2024-05-09T18:25:34.192Z,34.44
2024-05-09T18:28:02.620Z,35.21
2024-05-09T18:30:34.726Z,35.83
2024-05-09T18:33:06.076Z,35.60
2024-05-09T18:35:34.301Z,35.46
2024-05-09T18:38:01.239Z,35.39
2024-05-09T18:40:34.428Z,36.07
2024-05-09T18:43:05.832Z,36.15
2024-05-09T18:45:34.304Z,36.03
2024-05-09T18:48:02.443Z,36.20
2024-05-09T18:50:35.827Z,36.73
2024-05-09T18:53:06.509Z,37.06
2024-05-09T18:55:33.703Z,37.54
2024-05-09T18:58:01.459Z,36.78
2024-05-09T19:00:40.445Z,37.04
2024-05-09T19:03:12.224Z,37.21
2024-05-09T19:05:41.506Z,36.93
2024-05-09T19:08:08.933Z,37.18
2024-05-09T19:10:38.434Z,36.85
2024-05-09T19:13:09.232Z,36.91
2024-05-09T19:15:39.455Z,37.02
2024-05-09T19:18:06.938Z,36.25
2024-05-09T19:20:35.588Z,36.48
2024-05-09T19:23:03.665Z,36.89
2024-05-09T19:25:30.369Z,37.33
2024-05-09T19:27:57.017Z,36.94
2024-05-09T19:30:30.530Z,36.84
2024-05-09T19:33:05.538Z,36.68
2024-05-09T19:35:32.389Z,37.45
2024-05-09T19:37:59.107Z,37.43
2024-05-09T19:40:31.272Z,37.46
2024-05-09T19:43:00.060Z,37.84
2024-05-09T19:45:26.639Z,37.82
2024-05-09T19:47:53.303Z,37.97
2024-05-09T19:50:26.990Z,37.86
2024-05-09T19:53:02.173Z,38.42
2024-05-09T19:55:28.832Z,37.81
2024-05-09T19:57:55.456Z,38.14
2024-05-09T20:00:29.147Z,38.74
2024-05-09T20:03:01.783Z,39.34
2024-05-09T20:05:30.746Z,38.81
2024-05-09T20:07:57.617Z,38.67
2024-05-09T20:10:29.791Z,38.49
2024-05-09T20:12:59.321Z,39.11
2024-05-09T20:15:25.891Z,38.96
2024-05-09T20:17:52.531Z,39.12
2024-05-09T20:20:28.347Z,40.01
2024-05-09T20:23:02.815Z,39.98
2024-05-09T20:25:29.438Z,40.02
2024-05-09T20:27:55.947Z,39.88
2024-05-09T20:30:28.987Z,39.65
2024-05-09T20:32:59.418Z,39.58
2024-05-09T20:35:26.613Z,40.09
2024-05-09T20:37:53.157Z,39.99
2024-05-09T20:40:28.239Z,39.61
2024-05-09T20:42:59.217Z,39.75
2024-05-09T20:45:25.869Z,38.79
2024-05-09T20:47:52.537Z,39.33
2024-05-09T20:50:28.095Z,39.52
2024-05-09T20:53:02.611Z,40.23
2024-05-09T20:55:29.823Z,40.08
2024-05-09T20:57:56.627Z,39.80
2024-05-09T21:00:30.076Z,40.38
2024-05-09T21:03:05.126Z,41.20
2024-05-09T21:05:31.973Z,40.93
2024-05-09T21:07:58.723Z,40.80
2024-05-09T21:12:52.887Z,40.44
2024-05-09T21:15:19.387Z,40.59
2024-05-09T21:17:46.047Z,40.57
2024-05-09T21:20:17.288Z,41.11
2024-05-09T21:22:47.210Z,40.88
2024-05-09T21:25:14.157Z,40.79
2024-05-09T21:27:40.883Z,40.66
2024-05-09T21:30:12.954Z,41.13
2024-05-09T21:32:44.922Z,40.67
2024-05-09T21:35:11.453Z,41.72
2024-05-09T21:37:37.947Z,41.94
2024-05-09T21:40:09.563Z,42.34
2024-05-09T21:42:40.161Z,41.96
2024-05-09T21:45:06.931Z,42.55
2024-05-09T21:47:37.084Z,43.13
2024-05-09T21:50:06.099Z,42.77
2024-05-09T21:52:34.158Z,43.48
2024-05-09T21:55:00.832Z,43.21
2024-05-09T21:57:27.329Z,43.31
2024-05-09T21:59:53.854Z,43.69
2024-05-09T22:02:20.432Z,44.19
2024-05-09T22:04:47.181Z,44.00
2024-05-09T22:07:13.874Z,43.20
2024-05-09T22:09:45.332Z,42.72
2024-05-09T22:12:12.281Z,43.31
2024-05-09T22:14:38.949Z,43.74
2024-05-09T22:17:05.541Z,43.89
2024-05-09T22:19:32.214Z,44.80
2024-05-09T22:21:58.811Z,45.04
2024-05-09T22:24:25.333Z,44.65
2024-05-09T22:26:53.539Z,44.98
2024-05-09T22:29:20.027Z,43.97
2024-05-09T22:31:46.565Z,44.88
2024-05-09T22:34:13.274Z,44.46
2024-05-09T22:36:39.933Z,44.99
2024-05-09T22:39:06.639Z,44.93
2024-05-09T22:41:33.201Z,45.53
2024-05-09T22:44:01.809Z,44.38
2024-05-09T22:46:28.388Z,44.02
2024-05-09T22:48:55.140Z,46.13
2024-05-09T22:51:21.803Z,46.71
2024-05-09T22:53:48.332Z,46.05
2024-05-09T22:56:15.106Z,46.98
2024-05-09T22:58:41.625Z,47.40
2024-05-09T23:01:14.555Z,47.41
2024-05-09T23:03:41.253Z,47.31
2024-05-09T23:06:08.269Z,47.57
2024-05-09T23:08:34.772Z,46.64
2024-05-09T23:11:01.496Z,45.71
2024-05-09T23:13:28.119Z,45.66
2024-05-09T23:15:54.685Z,46.20
2024-05-09T23:18:21.348Z,46.07
2024-05-09T23:20:48.009Z,47.18
2024-05-09T23:23:14.485Z,47.49
2024-05-09T23:25:41.534Z,46.94
2024-05-09T23:28:08.609Z,46.62
2024-05-09T23:30:38.958Z,46.85
2024-05-09T23:33:10.735Z,47.26
2024-05-09T23:35:37.733Z,47.67
2024-05-09T23:38:04.975Z,47.59
2024-05-09T23:40:38.495Z,48.43
2024-05-09T23:43:09.077Z,49.20
2024-05-09T23:45:36.067Z,48.88
2024-05-09T23:48:03.442Z,49.40
2024-05-09T23:50:35.839Z,48.98
2024-05-09T23:53:06.311Z,48.96
2024-05-09T23:55:33.754Z,49.04
2024-05-09T23:58:00.655Z,49.08
